Blaine, Washington
Current Conditions -  °F | °C
As of 6:53 AM on Sunday 21 Dec 2014 (Local Time) from KBLI Reporting Station
Clear Clear  
Wind Chill: 47°   Ceiling: Unl
Heat Index: 49°   Visibility: 10mi
Dew Point: 43°   Wind: 5mph
Humidity: 80%   Direction: 170°S
Pressure: 29.76"   Gusts: NA
Location:  48.99°N, 122.74°W
Report Text: KBLI 211453Z 17004KT 10SM CLR 09/06 A2976 RMK AO2 SLP083 T00940061 53027
Loading
Personal Weather Stations






























Interactive Weather Map New forecast layout! Learn more

10-Day Weather Forecast

Advertisements
Track Severe Weather on mobile